Hub


Voltar

 INFORMAÇÕES METEOROLÓGICAS

METAR FOR KMEV


ADDS - METARS form results

(2048 UTC 16 February 2019)
Data provider http://aviationweather.gov/metar/data/
 
METAR text: KMEV 162035Z AUTO 14009KT 10SM FEW029 SCT037 BKN044 00/M03 A2991 RMK AO2
Conditions at: KMEV (MINDEN , NV, US) observed 2035 UTC 16 February 2019
Temperature: 0.0°C (32°F)
Dewpoint: -3.0°C (27°F) [RH = 80%]
Pressure (altimeter): 29.91 inches Hg (1013.0 mb)
Winds: from the SE (140 degrees) at 10 MPH (9 knots; 4.6 m/s)
Visibility: 10 or more miles (16+ km)
Ceiling: 4400 feet AGL
Clouds: few clouds at 2900 feet AGL
scattered clouds at 3700 feet AGL
broken clouds at 4400 feet AGL
Weather: automated observation with no human augmentation;
there may or may not be significant weather present at this time

METAR text: KMEV 162015Z AUTO 13004KT 4SM -SN SCT003 BKN032 BKN043 M01/M02 A2991 RMK AO2
Conditions at: KMEV (MINDEN , NV, US) observed 2015 UTC 16 February 2019
Temperature: -1.0°C (30°F)
Dewpoint: -2.0°C (28°F) [RH = 93%]
Pressure (altimeter): 29.91 inches Hg (1013.0 mb)
Winds: from the SE (130 degrees) at 5 MPH (4 knots; 2.1 m/s)
Visibility: 4 miles ( 6 km)
Ceiling: 3200 feet AGL
Clouds: scattered clouds at 300 feet AGL
broken clouds at 3200 feet AGL
broken clouds at 4300 feet AGL
Weather: -SN  (light snow)

METAR text: KMEV 161955Z AUTO 21008KT 1/2SM SN BKN001 OVC013 M01/M02 A2992 RMK AO2
Conditions at: KMEV (MINDEN , NV, US) observed 1955 UTC 16 February 2019
Temperature: -1.0°C (30°F)
Dewpoint: -2.0°C (28°F) [RH = 93%]
Pressure (altimeter): 29.92 inches Hg (1013.3 mb)
Winds: from the SSW (210 degrees) at 9 MPH (8 knots; 4.1 m/s)
Visibility: 0.50 miles (0.80 km)
Ceiling: 100 feet AGL
Clouds: broken clouds at 100 feet AGL
overcast cloud deck at 1300 feet AGL
Weather: SN  (moderate snow)


 MAPA DO AEROPORTO


 INFORMAÇÕES DA PISTA

Pista 12 Tamanho da pista 5300 ft Largura da pista 75 ft
Elevação da pista 4700 ft Ranhura da pista 0 ft Proa da pista 135
Pista 30 Tamanho da pista 5300 ft Largura da pista 75 ft
Elevação da pista 4722 ft Ranhura da pista 0 ft Proa da pista 315
Pista 12G Tamanho da pista 2200 ft Largura da pista 60 ft
Elevação da pista 0 ft Ranhura da pista 0 ft Proa da pista 0
Pista 30G Tamanho da pista 2200 ft Largura da pista 60 ft
Elevação da pista 0 ft Ranhura da pista 0 ft Proa da pista 0
Pista 16 Tamanho da pista 7400 ft Largura da pista 100 ft
Elevação da pista 4708 ft Ranhura da pista 0 ft Proa da pista 180
Pista 34 Tamanho da pista 7400 ft Largura da pista 100 ft
Elevação da pista 4717 ft Ranhura da pista 0 ft Proa da pista 360

 FREQUÊNCIAS DO AEROPORTO

Tipo A/D Nome RENO APP/D Frequência 119.2 MHZ
Tipo AWOS Nome AWOS 3 Frequência 119.325 MHZ
Tipo UNIC Nome CTAF/UNICO Frequência 122.8 MHZ

 AUXÍLIOS DE NAVEGAÇÃO PRÓXIMOS AO AEROPORTO